LFSI 181530Z AUTO 15005KT 9999 -RA ///CB 24/18 Q1012

ElémentsDécodage
LFSI Station météo située sur l'aérodrome de SAINT-DIZIER Robinson
181530Z émis le 18 du mois à 15h30 UTC
AUTO Bulletin édité par un automate
15005KT vent du 150°, 05 noeuds
9999 visibilité horizontale supérieure à 10 Km
-RA faible pluie
///CB élement non décodé
24/18 température 24°C, point de rosée 18°C
 soit une humidité relative de 69%
Q1012 la pression au niveau de la mer (QNH) est de 1012 hPa